createdAt,value
2018-11-05T00:02:11.316Z,34.73
2018-11-05T00:04:40.190Z,36.97
2018-11-05T00:07:09.035Z,36.97
2018-11-05T00:09:37.890Z,35.00
2018-11-05T00:12:07.126Z,38.77
2018-11-05T00:14:36.064Z,36.90
2018-11-05T00:17:04.982Z,37.00
2018-11-05T00:19:33.786Z,36.23
2018-11-05T00:22:02.655Z,37.27
2018-11-05T00:24:31.508Z,36.47
2018-11-05T00:27:00.385Z,38.20
2018-11-05T00:29:29.251Z,38.70
2018-11-05T00:31:58.041Z,36.57
2018-11-05T00:34:26.891Z,38.63
2018-11-05T00:36:55.755Z,37.93
2018-11-05T00:39:24.556Z,39.10
2018-11-05T00:41:53.408Z,39.67
2018-11-05T00:44:22.339Z,38.40
2018-11-05T00:46:51.140Z,39.97
2018-11-05T00:49:19.938Z,39.23
2018-11-05T00:51:48.845Z,36.80
2018-11-05T00:54:17.727Z,39.37
2018-11-05T00:56:46.572Z,37.03
2018-11-05T00:59:15.405Z,40.27
2018-11-05T01:01:44.242Z,39.60
2018-11-05T01:04:13.182Z,40.30
2018-11-05T01:06:42.062Z,39.80
2018-11-05T01:09:10.901Z,40.20
2018-11-05T01:11:39.843Z,38.87
2018-11-05T01:14:09.232Z,38.80
2018-11-05T01:16:38.160Z,38.80
2018-11-05T01:19:07.083Z,40.80
2018-11-05T01:21:36.036Z,42.80
2018-11-05T01:24:05.171Z,40.77
2018-11-05T01:26:34.007Z,41.40
2018-11-05T01:29:02.845Z,40.90
2018-11-05T01:31:31.736Z,41.43
2018-11-05T01:34:00.529Z,42.87
2018-11-05T01:36:29.363Z,42.30
2018-11-05T01:38:58.231Z,42.67
2018-11-05T01:41:27.040Z,42.87
2018-11-05T01:43:55.882Z,45.20
2018-11-05T01:46:24.679Z,42.80
2018-11-05T01:48:53.538Z,41.97
2018-11-05T01:51:22.357Z,43.17
2018-11-05T01:53:51.243Z,42.27
2018-11-05T01:56:20.104Z,45.90
2018-11-05T01:58:48.961Z,43.53
2018-11-05T02:01:17.786Z,42.03
2018-11-05T02:03:46.594Z,42.97
2018-11-05T02:06:15.455Z,45.50
2018-11-05T02:08:44.244Z,47.70
2018-11-05T02:11:13.103Z,44.23
2018-11-05T02:13:41.951Z,45.10
2018-11-05T02:16:10.962Z,45.03
2018-11-05T02:18:39.682Z,44.57
2018-11-05T02:21:08.549Z,43.87
2018-11-05T02:23:37.352Z,44.03
2018-11-05T02:26:06.414Z,47.93
2018-11-05T02:28:35.205Z,47.53
2018-11-05T02:31:04.091Z,46.70
2018-11-05T02:33:32.908Z,44.03
2018-11-05T02:36:01.708Z,46.93
2018-11-05T02:38:30.553Z,48.67
2018-11-05T02:40:59.430Z,46.43
2018-11-05T02:43:28.302Z,44.10
2018-11-05T02:45:57.248Z,48.77
2018-11-05T02:48:26.097Z,45.43
2018-11-05T02:50:54.922Z,47.77
2018-11-05T02:53:23.786Z,48.00
2018-11-05T02:55:52.646Z,47.63
2018-11-05T02:58:21.493Z,44.57
2018-11-05T03:00:50.322Z,48.77
2018-11-05T03:03:19.294Z,45.70
2018-11-05T03:05:48.025Z,48.53
2018-11-05T03:08:16.899Z,45.80
2018-11-05T03:10:45.713Z,47.33
2018-11-05T03:13:14.631Z,46.10
2018-11-05T03:15:43.431Z,45.60
2018-11-05T03:18:12.219Z,47.97
2018-11-05T03:20:41.068Z,47.10
2018-11-05T03:23:09.862Z,46.43
2018-11-05T03:25:38.693Z,48.97
2018-11-05T03:28:07.517Z,48.37
2018-11-05T03:30:36.388Z,48.47
2018-11-05T03:33:05.735Z,46.00
2018-11-05T03:35:34.651Z,48.77
2018-11-05T03:38:03.458Z,47.80
2018-11-05T03:40:32.386Z,46.43
2018-11-05T03:43:01.229Z,47.10
2018-11-05T03:45:30.019Z,48.20
2018-11-05T03:47:58.904Z,46.40
2018-11-05T03:50:27.737Z,46.30
2018-11-05T03:52:56.640Z,48.00
2018-11-05T03:55:25.510Z,46.77
2018-11-05T03:57:54.388Z,47.63
2018-11-05T04:00:23.321Z,48.33
2018-11-05T04:02:52.145Z,45.57
2018-11-05T04:05:21.040Z,46.63
2018-11-05T04:07:49.864Z,48.03
2018-11-05T04:10:18.757Z,51.37
2018-11-05T04:12:47.576Z,47.23
2018-11-05T04:15:16.563Z,49.13
2018-11-05T04:17:45.449Z,45.60
2018-11-05T04:20:15.058Z,46.33
2018-11-05T04:22:44.701Z,47.17
2018-11-05T04:25:13.579Z,45.37
2018-11-05T04:27:42.529Z,47.00
2018-11-05T04:30:13.461Z,47.97
2018-11-05T04:32:42.552Z,47.20
2018-11-05T04:35:11.749Z,44.77
2018-11-05T04:37:40.665Z,46.90
2018-11-05T04:40:10.506Z,47.63
2018-11-05T04:42:39.458Z,46.93
2018-11-05T04:45:10.233Z,45.90
2018-11-05T04:47:39.140Z,48.03
2018-11-05T04:50:09.447Z,49.33
2018-11-05T04:52:39.031Z,49.37
2018-11-05T04:55:07.932Z,48.20
2018-11-05T04:57:36.848Z,44.97
2018-11-05T05:00:10.059Z,46.80
2018-11-05T05:02:39.681Z,44.67
2018-11-05T05:05:08.935Z,47.73
2018-11-05T05:07:37.714Z,47.77
2018-11-05T05:10:07.340Z,47.43
2018-11-05T05:12:36.221Z,46.57
2018-11-05T05:15:05.477Z,49.83
2018-11-05T05:17:34.345Z,46.03
2018-11-05T05:20:03.218Z,45.97
2018-11-05T05:22:32.109Z,46.63
2018-11-05T05:25:01.350Z,46.97
2018-11-05T05:27:30.221Z,47.10
2018-11-05T05:29:59.166Z,46.07
2018-11-05T05:32:28.345Z,44.77
2018-11-05T05:34:57.216Z,45.73
2018-11-05T05:37:26.171Z,46.00
2018-11-05T05:39:54.991Z,46.00
2018-11-05T05:42:23.841Z,46.33
2018-11-05T05:44:52.631Z,46.80
2018-11-05T05:47:21.423Z,45.47
2018-11-05T05:49:50.255Z,47.43
2018-11-05T05:52:19.069Z,45.87
2018-11-05T05:54:47.922Z,46.83
2018-11-05T05:57:16.829Z,44.50
2018-11-05T05:59:45.749Z,43.93
2018-11-05T06:02:14.556Z,44.50
2018-11-05T06:04:43.385Z,43.33
2018-11-05T06:07:12.219Z,43.63
2018-11-05T06:09:41.126Z,44.53
2018-11-05T06:12:09.915Z,43.40
2018-11-05T06:14:38.729Z,42.80
2018-11-05T06:17:07.541Z,44.20
2018-11-05T06:19:36.387Z,41.60
2018-11-05T06:22:05.776Z,43.07
2018-11-05T06:24:34.614Z,45.40
2018-11-05T06:27:03.462Z,41.23
2018-11-05T06:29:32.321Z,43.73
2018-11-05T06:32:01.139Z,42.87
2018-11-05T06:34:30.023Z,43.07
2018-11-05T06:36:58.822Z,42.80
2018-11-05T06:39:27.616Z,43.73
2018-11-05T06:41:56.523Z,42.60
2018-11-05T06:44:25.334Z,43.00
2018-11-05T06:46:54.190Z,42.20
2018-11-05T06:49:23.016Z,42.60
2018-11-05T06:51:51.862Z,41.37
2018-11-05T06:54:20.655Z,41.87
2018-11-05T06:56:49.547Z,42.90
2018-11-05T06:59:18.340Z,40.70
2018-11-05T07:01:47.371Z,42.00
2018-11-05T07:04:16.207Z,41.40
2018-11-05T07:06:45.029Z,41.07
2018-11-05T07:09:14.399Z,40.67
2018-11-05T07:11:43.234Z,41.00
2018-11-05T07:14:12.116Z,39.13
2018-11-05T07:16:40.991Z,40.10
2018-11-05T07:19:10.162Z,44.90
2018-11-05T07:21:38.750Z,42.60
2018-11-05T07:24:07.651Z,42.60
2018-11-05T07:26:36.662Z,40.63
2018-11-05T07:29:05.575Z,41.90
2018-11-05T07:31:34.446Z,41.03
2018-11-05T07:34:03.491Z,42.23
2018-11-05T07:36:32.203Z,40.57
2018-11-05T07:39:01.088Z,40.67
2018-11-05T07:41:29.893Z,41.83
2018-11-05T07:43:58.674Z,39.93
2018-11-05T07:46:27.623Z,39.87
2018-11-05T07:48:56.454Z,39.83
2018-11-05T07:51:25.323Z,40.70
2018-11-05T07:53:54.215Z,39.20
2018-11-05T07:56:23.242Z,38.77
2018-11-05T07:58:52.046Z,39.87
2018-11-05T08:01:20.923Z,38.23
2018-11-05T08:03:49.880Z,38.87
2018-11-05T08:06:18.735Z,41.20
2018-11-05T08:08:47.569Z,36.80
2018-11-05T08:11:16.387Z,37.27
2018-11-05T08:13:45.256Z,36.97
2018-11-05T08:16:14.177Z,38.00
2018-11-05T08:18:43.028Z,37.73
2018-11-05T08:21:11.854Z,37.77
2018-11-05T08:23:40.720Z,38.80
2018-11-05T08:26:10.421Z,36.33
2018-11-05T08:28:39.279Z,39.63
2018-11-05T08:31:08.086Z,37.97
2018-11-05T08:33:36.923Z,37.20
2018-11-05T08:36:05.988Z,37.90
2018-11-05T08:38:34.892Z,38.07
2018-11-05T08:41:03.768Z,38.47
2018-11-05T08:43:32.560Z,38.73
2018-11-05T08:46:07.152Z,38.57
2018-11-05T08:48:52.137Z,35.33
2018-11-05T08:51:34.391Z,36.43
2018-11-05T08:54:13.971Z,36.67
2018-11-05T08:56:43.136Z,38.07
2018-11-05T08:59:12.054Z,37.17
2018-11-05T09:01:41.075Z,35.80
2018-11-05T09:04:10.065Z,37.43
2018-11-05T09:06:40.583Z,35.13
2018-11-05T09:09:11.081Z,36.83
2018-11-05T09:11:41.374Z,36.93
2018-11-05T09:14:12.214Z,37.03
2018-11-05T09:16:42.593Z,33.93
2018-11-05T09:19:12.665Z,35.20
2018-11-05T09:21:44.831Z,36.83
2018-11-05T09:24:15.263Z,36.63
2018-11-05T09:26:53.357Z,37.20
2018-11-05T09:29:23.060Z,36.73
2018-11-05T09:31:54.675Z,35.53
2018-11-05T09:34:25.294Z,34.20
2018-11-05T09:36:57.573Z,34.77
2018-11-05T09:39:27.276Z,34.23
2018-11-05T09:41:56.925Z,35.33
2018-11-05T09:44:25.860Z,34.47
2018-11-05T09:46:54.769Z,37.07
2018-11-05T09:49:23.568Z,35.80
2018-11-05T09:51:58.171Z,36.23
2018-11-05T09:54:28.444Z,34.77
2018-11-05T09:56:58.753Z,35.70
2018-11-05T09:59:29.696Z,39.00
2018-11-05T10:01:59.762Z,36.07
2018-11-05T10:04:28.731Z,36.33
2018-11-05T10:06:57.769Z,33.33
2018-11-05T10:09:35.733Z,35.80
2018-11-05T10:12:06.878Z,33.73
2018-11-05T10:14:36.718Z,35.77
2018-11-05T10:17:07.062Z,33.33
2018-11-05T10:19:35.967Z,32.90
2018-11-05T10:22:04.862Z,33.50
2018-11-05T10:25:15.746Z,31.70
2018-11-05T10:27:46.994Z,31.80
2018-11-05T10:30:18.805Z,32.63
2018-11-05T10:32:49.531Z,34.67
2018-11-05T10:35:20.272Z,34.50
2018-11-05T10:37:50.402Z,34.43
2018-11-05T10:40:20.807Z,33.73
2018-11-05T10:42:50.574Z,33.37
2018-11-05T10:45:20.419Z,33.27
2018-11-05T10:47:50.211Z,33.73
2018-11-05T10:50:22.252Z,32.63
2018-11-05T10:52:52.988Z,32.60
2018-11-05T10:55:23.310Z,32.77
2018-11-05T10:57:53.498Z,34.03
2018-11-05T11:00:29.075Z,32.60
2018-11-05T11:04:01.417Z,31.67
2018-11-05T11:06:31.416Z,32.20
2018-11-05T11:09:01.335Z,34.33
2018-11-05T11:11:31.566Z,30.67
2018-11-05T11:14:01.527Z,34.17
2018-11-05T11:16:31.417Z,31.43
2018-11-05T11:19:21.511Z,34.37
2018-11-05T11:22:13.293Z,32.43
2018-11-05T11:25:14.449Z,31.60
2018-11-05T11:27:43.864Z,32.90
2018-11-05T11:30:25.735Z,30.87
2018-11-05T11:32:57.920Z,31.20
2018-11-05T11:35:27.992Z,31.33
2018-11-05T11:37:57.280Z,31.33
2018-11-05T11:40:27.269Z,31.00
2018-11-05T11:42:57.526Z,30.37
2018-11-05T11:45:28.063Z,29.83
2018-11-05T11:47:58.566Z,30.97
2018-11-05T11:50:28.350Z,30.63
2018-11-05T11:52:58.380Z,28.77
2018-11-05T11:55:28.709Z,29.97
2018-11-05T11:57:58.905Z,29.27
2018-11-05T12:00:28.976Z,29.33
2018-11-05T12:02:59.051Z,28.90
2018-11-05T12:05:28.904Z,28.13
2018-11-05T12:07:59.237Z,28.27
2018-11-05T12:10:29.750Z,28.60
2018-11-05T12:12:59.615Z,26.83
2018-11-05T12:15:29.749Z,29.07
2018-11-05T12:18:04.061Z,28.13
2018-11-05T12:20:34.642Z,28.43
2018-11-05T12:23:06.589Z,28.90
2018-11-05T12:25:37.140Z,27.37
2018-11-05T12:28:06.513Z,28.20
2018-11-05T12:30:36.536Z,26.90
2018-11-05T12:33:07.342Z,28.87
2018-11-05T12:35:37.962Z,27.43
2018-11-05T12:38:08.918Z,29.00
2018-11-05T12:40:38.694Z,27.30
2018-11-05T12:43:09.064Z,28.73
2018-11-05T12:45:39.211Z,27.87
2018-11-05T12:48:08.600Z,27.90
2018-11-05T12:50:39.728Z,26.80
2018-11-05T12:53:10.479Z,27.70
2018-11-05T12:55:41.027Z,25.97
2018-11-05T12:58:11.129Z,27.33
2018-11-05T13:00:41.516Z,27.20
2018-11-05T13:03:22.509Z,26.13
2018-11-05T13:06:02.311Z,26.23
2018-11-05T13:08:31.516Z,26.63
2018-11-05T13:11:20.015Z,26.37
2018-11-05T13:14:06.889Z,26.80
2018-11-05T13:16:58.562Z,28.20
2018-11-05T13:19:50.194Z,26.53
2018-11-05T13:22:50.842Z,26.47
2018-11-05T13:29:50.687Z,25.20
2018-11-05T13:32:28.915Z,25.70
2018-11-05T13:35:21.394Z,26.00
2018-11-05T13:37:54.560Z,25.80
2018-11-05T13:40:24.569Z,25.40
2018-11-05T13:42:55.282Z,26.30
2018-11-05T13:45:25.620Z,26.67
2018-11-05T13:47:56.720Z,25.33
2018-11-05T13:50:42.701Z,26.27
2018-11-05T13:53:14.612Z,25.63
2018-11-05T13:55:45.207Z,27.83
2018-11-05T13:58:14.887Z,27.47
2018-11-05T14:00:45.395Z,28.73
2018-11-05T14:03:15.845Z,28.47
2018-11-05T14:05:46.381Z,30.10
2018-11-05T14:08:16.792Z,29.17
2018-11-05T14:10:46.366Z,28.80
2018-11-05T14:13:16.982Z,28.30
2018-11-05T14:15:47.343Z,27.17
2018-11-05T14:18:17.980Z,29.13
2018-11-05T14:20:47.939Z,29.87
2018-11-05T14:23:18.696Z,28.10
2018-11-05T14:25:49.000Z,27.63
2018-11-05T14:28:20.021Z,27.60
2018-11-05T14:31:01.015Z,30.03
2018-11-05T14:33:31.686Z,29.67
2018-11-05T14:36:02.007Z,29.53
2018-11-05T14:38:34.393Z,27.03
2018-11-05T14:41:04.629Z,28.80
2018-11-05T14:43:34.898Z,29.33
2018-11-05T14:46:05.212Z,28.63
2018-11-05T14:48:35.801Z,28.00
2018-11-05T14:51:05.976Z,28.20
2018-11-05T14:53:36.279Z,28.10
2018-11-05T14:56:06.918Z,28.13
2018-11-05T14:58:38.561Z,28.07
2018-11-05T15:01:08.317Z,27.90
2018-11-05T15:03:38.343Z,29.03
2018-11-05T15:06:07.446Z,28.40
2018-11-05T15:08:37.811Z,30.30
2018-11-05T15:11:08.503Z,29.20
2018-11-05T15:13:44.138Z,28.07
2018-11-05T15:16:30.467Z,27.37
2018-11-05T15:19:01.802Z,28.77
2018-11-05T15:21:32.946Z,28.40
2018-11-05T15:24:03.408Z,28.23
2018-11-05T15:26:33.760Z,29.00
2018-11-05T15:29:04.318Z,28.63
2018-11-05T15:31:35.537Z,29.90
2018-11-05T15:34:08.081Z,29.50
2018-11-05T15:36:51.743Z,28.13
2018-11-05T15:39:37.173Z,28.27
2018-11-05T15:42:11.579Z,31.93
2018-11-05T15:44:40.662Z,30.00
2018-11-05T15:47:11.557Z,28.93
2018-11-05T15:49:42.500Z,29.50
2018-11-05T15:52:13.557Z,29.47
2018-11-05T15:54:44.051Z,29.37
2018-11-05T15:57:15.998Z,27.93
2018-11-05T15:59:46.516Z,27.97
2018-11-05T16:02:17.634Z,30.30
2018-11-05T16:04:48.372Z,28.43
2018-11-05T16:07:18.682Z,27.80
2018-11-05T16:09:52.067Z,29.07
2018-11-05T16:12:25.849Z,30.33
2018-11-05T16:14:57.744Z,28.53
2018-11-05T16:17:28.385Z,30.67
2018-11-05T16:19:59.345Z,29.30
2018-11-05T16:22:28.948Z,28.83
2018-11-05T16:24:59.829Z,31.00
2018-11-05T16:27:28.749Z,28.60
2018-11-05T16:29:57.649Z,28.43
2018-11-05T16:32:26.695Z,30.63
2018-11-05T16:34:57.563Z,29.13
2018-11-05T16:37:27.080Z,27.60
2018-11-05T16:39:56.195Z,27.50
2018-11-05T16:42:26.277Z,28.13
2018-11-05T16:44:56.712Z,27.50
2018-11-05T16:47:27.696Z,29.83
2018-11-05T16:49:57.126Z,28.77
2018-11-05T16:52:31.046Z,29.23
2018-11-05T16:55:02.019Z,29.43
2018-11-05T16:57:54.649Z,27.73
2018-11-05T17:00:26.020Z,29.07
2018-11-05T17:03:17.096Z,29.37
2018-11-05T17:06:14.385Z,29.13
2018-11-05T17:09:02.003Z,27.10
2018-11-05T17:11:57.532Z,28.17
2018-11-05T17:14:47.079Z,29.97
2018-11-05T17:17:18.108Z,30.93
2018-11-05T17:19:47.505Z,29.83
2018-11-05T17:22:16.727Z,31.33
2018-11-05T17:24:46.176Z,31.67
2018-11-05T17:27:16.049Z,31.50
2018-11-05T17:29:45.104Z,30.37
2018-11-05T17:32:18.232Z,30.93
2018-11-05T17:34:48.283Z,30.43
2018-11-05T17:37:17.779Z,32.00
2018-11-05T17:39:47.397Z,30.37
2018-11-05T17:42:16.401Z,30.07
2018-11-05T17:44:46.875Z,28.87
2018-11-05T17:47:15.946Z,26.87
2018-11-05T17:49:45.130Z,28.90
2018-11-05T17:52:14.588Z,28.93
2018-11-05T17:54:43.572Z,28.53
2018-11-05T17:57:26.138Z,28.17
2018-11-05T17:59:56.213Z,29.37
2018-11-05T18:02:27.131Z,27.17
2018-11-05T18:04:57.038Z,28.27
2018-11-05T18:07:27.427Z,28.13
2018-11-05T18:09:56.818Z,27.37
2018-11-05T18:12:25.877Z,28.27
2018-11-05T18:14:55.434Z,27.83
2018-11-05T18:17:24.428Z,27.53
2018-11-05T18:19:53.421Z,30.07
2018-11-05T18:22:22.653Z,30.23
2018-11-05T18:24:53.509Z,30.23
2018-11-05T18:27:23.091Z,29.83
2018-11-05T18:29:52.292Z,29.57
2018-11-05T18:32:22.841Z,29.53
2018-11-05T18:34:52.700Z,28.40
2018-11-05T18:37:21.825Z,29.67
2018-11-05T18:39:51.084Z,28.13
2018-11-05T18:42:21.303Z,30.33
2018-11-05T18:44:50.651Z,30.60
2018-11-05T18:47:20.170Z,27.70
2018-11-05T18:49:49.523Z,32.03
2018-11-05T18:52:19.271Z,30.57
2018-11-05T18:54:49.377Z,33.13
2018-11-05T18:57:19.836Z,32.30
2018-11-05T18:59:51.955Z,33.10
2018-11-05T19:02:26.153Z,31.90
2018-11-05T19:04:55.052Z,31.07
2018-11-05T19:07:23.879Z,30.57
2018-11-05T19:09:52.985Z,29.33
2018-11-05T19:12:21.913Z,33.60
2018-11-05T19:14:50.814Z,32.63
2018-11-05T19:17:20.339Z,30.23
2018-11-05T19:19:49.171Z,30.37
2018-11-05T19:22:18.104Z,30.57
2018-11-05T19:24:46.944Z,29.33
2018-11-05T19:27:16.126Z,27.90
2018-11-05T19:29:44.934Z,29.67
2018-11-05T19:32:13.820Z,26.70
2018-11-05T19:34:43.116Z,27.13
2018-11-05T19:37:12.016Z,31.80
2018-11-05T19:39:41.768Z,29.73
2018-11-05T19:42:10.677Z,30.33
2018-11-05T19:44:39.516Z,29.20
2018-11-05T19:47:08.362Z,29.43
2018-11-05T19:49:37.377Z,28.50
2018-11-05T19:52:06.237Z,30.53
2018-11-05T19:54:35.176Z,34.87
2018-11-05T19:57:04.146Z,30.97
2018-11-05T19:59:33.050Z,33.13
2018-11-05T20:02:01.874Z,33.47
2018-11-05T20:04:30.940Z,31.70
2018-11-05T20:06:59.809Z,29.60
2018-11-05T20:09:28.697Z,30.70
2018-11-05T20:11:57.574Z,29.77
2018-11-05T20:14:26.471Z,32.57
2018-11-05T20:16:55.459Z,35.00
2018-11-05T20:19:24.259Z,35.27
2018-11-05T20:21:53.208Z,33.77
2018-11-05T20:24:22.158Z,34.63
2018-11-05T20:26:51.090Z,30.27
2018-11-05T20:29:20.258Z,30.40
2018-11-05T20:31:49.449Z,29.10
2018-11-05T20:34:18.471Z,30.43
2018-11-05T20:36:47.232Z,28.10
2018-11-05T20:39:16.167Z,28.53
2018-11-05T20:41:44.973Z,27.73
2018-11-05T20:44:13.822Z,27.23
2018-11-05T20:46:42.733Z,27.70
2018-11-05T20:49:11.572Z,28.20
2018-11-05T20:51:40.436Z,26.90
2018-11-05T20:54:09.372Z,28.10
2018-11-05T20:56:38.352Z,27.43
2018-11-05T20:59:07.284Z,27.37
2018-11-05T21:01:36.162Z,28.33
2018-11-05T21:04:05.055Z,28.17
2018-11-05T21:06:33.933Z,30.33
2018-11-05T21:09:02.786Z,28.43
2018-11-05T21:11:31.615Z,28.93
2018-11-05T21:14:00.464Z,30.37
2018-11-05T21:16:29.357Z,28.40
2018-11-05T21:18:58.225Z,29.63
2018-11-05T21:21:27.091Z,29.30
2018-11-05T21:23:55.972Z,25.47
2018-11-05T21:26:24.818Z,27.63
2018-11-05T21:28:53.708Z,28.50
2018-11-05T21:31:22.559Z,29.80
2018-11-05T21:33:51.399Z,28.90
2018-11-05T21:36:20.283Z,28.87
2018-11-05T21:38:49.098Z,28.80
2018-11-05T21:41:17.969Z,29.60
2018-11-05T21:43:46.839Z,28.90
2018-11-05T21:46:15.656Z,29.33
2018-11-05T21:48:44.546Z,30.50
2018-11-05T21:51:13.383Z,30.03
2018-11-05T21:53:42.275Z,30.53
2018-11-05T21:56:11.142Z,29.03
2018-11-05T21:58:40.031Z,28.90
2018-11-05T22:01:08.838Z,26.83
2018-11-05T22:03:37.704Z,27.20
2018-11-05T22:06:06.536Z,24.97
2018-11-05T22:08:35.441Z,25.40
2018-11-05T22:11:04.318Z,25.63
2018-11-05T22:13:33.192Z,25.70
2018-11-05T22:16:02.095Z,27.03
2018-11-05T22:18:30.958Z,25.57
2018-11-05T22:20:59.743Z,25.33
2018-11-05T22:23:28.561Z,25.40
2018-11-05T22:25:57.402Z,25.30
2018-11-05T22:28:26.196Z,27.00
2018-11-05T22:30:55.089Z,24.60
2018-11-05T22:33:23.964Z,26.10
2018-11-05T22:35:52.816Z,27.23
2018-11-05T22:38:21.668Z,24.03
2018-11-05T22:40:50.585Z,26.40
2018-11-05T22:43:20.054Z,24.60
2018-11-05T22:45:48.927Z,25.63
2018-11-05T22:48:17.751Z,23.87
2018-11-05T22:50:46.631Z,23.97
2018-11-05T22:53:15.673Z,25.40
2018-11-05T22:55:44.580Z,27.23
2018-11-05T22:58:13.417Z,24.57
2018-11-05T23:00:47.490Z,24.83
2018-11-05T23:03:21.762Z,22.97
2018-11-05T23:05:50.623Z,23.13
2018-11-05T23:08:19.556Z,25.47
2018-11-05T23:10:48.362Z,24.20
2018-11-05T23:13:17.198Z,22.83
2018-11-05T23:15:46.178Z,23.30
2018-11-05T23:18:15.175Z,22.67
2018-11-05T23:20:43.968Z,22.17
2018-11-05T23:23:12.902Z,23.70
2018-11-05T23:25:41.775Z,22.17
2018-11-05T23:28:10.651Z,22.47
2018-11-05T23:30:39.483Z,22.50
2018-11-05T23:33:08.382Z,22.70
2018-11-05T23:35:37.200Z,21.63
2018-11-05T23:38:06.738Z,22.53
2018-11-05T23:40:35.630Z,22.27
2018-11-05T23:43:04.464Z,20.90
2018-11-05T23:45:33.339Z,22.70
2018-11-05T23:48:02.223Z,21.53
2018-11-05T23:50:31.102Z,21.20
2018-11-05T23:52:59.968Z,21.20
2018-11-05T23:55:28.929Z,21.90
2018-11-05T23:57:57.742Z,21.50
